createdAt,value
2022-12-15T00:00:25.596Z,-0.30
2022-12-15T00:02:52.385Z,-0.30
2022-12-15T00:05:19.046Z,-0.30
2022-12-15T00:07:45.628Z,-0.30
2022-12-15T00:10:12.291Z,-0.30
2022-12-15T00:12:38.844Z,-0.30
2022-12-15T00:15:05.883Z,-0.20
2022-12-15T00:17:32.502Z,-0.20
2022-12-15T00:19:59.099Z,-0.20
2022-12-15T00:22:25.695Z,-0.30
2022-12-15T00:24:52.306Z,-0.30
2022-12-15T00:27:18.997Z,-0.30
2022-12-15T00:29:45.561Z,-0.30
2022-12-15T00:32:12.118Z,-0.30
2022-12-15T00:34:38.708Z,-0.30
2022-12-15T00:37:05.417Z,-0.30
2022-12-15T00:39:31.993Z,-0.30
2022-12-15T00:41:58.577Z,-0.40
2022-12-15T00:44:25.133Z,-0.30
2022-12-15T00:46:51.814Z,-0.30
2022-12-15T00:49:18.473Z,-0.40
2022-12-15T00:51:45.087Z,-0.30
2022-12-15T00:54:17.742Z,-0.30
2022-12-15T00:56:44.669Z,-0.30
2022-12-15T00:59:12.144Z,-0.30
2022-12-15T01:01:39.269Z,-0.30
2022-12-15T01:04:05.986Z,-0.40
2022-12-15T01:06:32.664Z,-0.30
2022-12-15T01:08:59.303Z,-0.40
2022-12-15T01:11:26.092Z,-0.40
2022-12-15T01:13:52.661Z,-0.40
2022-12-15T01:16:19.327Z,-0.50
2022-12-15T01:18:49.437Z,-0.50
2022-12-15T01:21:16.366Z,-0.40
2022-12-15T01:23:42.968Z,-0.40
2022-12-15T01:26:09.608Z,-0.40
2022-12-15T01:28:36.207Z,-0.40
2022-12-15T01:31:08.636Z,-0.30
2022-12-15T01:33:35.222Z,-0.30
2022-12-15T01:36:02.162Z,-0.40
2022-12-15T01:38:29.483Z,-0.30
2022-12-15T01:41:03.222Z,-0.40
2022-12-15T01:43:33.486Z,-0.30
2022-12-15T01:46:15.107Z,-0.40
2022-12-15T01:48:47.286Z,-0.40
2022-12-15T01:51:24.088Z,-0.40
2022-12-15T01:54:01.474Z,-0.40
2022-12-15T01:56:36.867Z,-0.50
2022-12-15T01:59:07.306Z,-0.50
2022-12-15T02:01:34.138Z,-0.50
2022-12-15T02:04:01.249Z,-0.50
2022-12-15T02:06:28.956Z,-0.50
2022-12-15T02:08:58.150Z,-0.50
2022-12-15T02:11:36.327Z,-0.50
2022-12-15T02:14:09.187Z,-0.50
2022-12-15T02:16:41.834Z,-0.50
2022-12-15T02:19:39.449Z,-0.60
2022-12-15T02:22:29.608Z,-0.60
2022-12-15T02:25:45.690Z,-0.60
2022-12-15T02:28:30.741Z,-0.60
2022-12-15T02:31:00.078Z,-0.70
2022-12-15T02:33:29.988Z,-0.70
2022-12-15T02:36:00.197Z,-0.70
2022-12-15T02:38:33.408Z,-0.70
2022-12-15T02:41:01.619Z,-0.70
2022-12-15T02:43:30.390Z,-0.60
2022-12-15T02:46:27.771Z,-0.60
2022-12-15T02:49:04.068Z,-0.60
2022-12-15T02:51:52.114Z,-0.60
2022-12-15T02:54:57.875Z,-0.60
2022-12-15T02:57:49.767Z,-0.60
2022-12-15T03:00:17.855Z,-0.60
2022-12-15T03:02:54.179Z,-0.70
2022-12-15T03:05:24.079Z,-0.60
2022-12-15T03:07:52.939Z,-0.70
2022-12-15T03:10:21.776Z,-0.60
2022-12-15T03:12:48.366Z,-0.60
2022-12-15T03:15:14.968Z,-0.70
2022-12-15T03:17:41.578Z,-0.70
2022-12-15T03:20:09.153Z,-0.70
2022-12-15T03:22:36.737Z,-0.60
2022-12-15T03:25:04.308Z,-0.60
2022-12-15T03:27:31.010Z,-0.60
2022-12-15T03:29:57.599Z,-0.50
2022-12-15T03:32:24.184Z,-0.60
2022-12-15T03:34:50.787Z,-0.60
2022-12-15T03:37:17.370Z,-0.70
2022-12-15T03:39:43.945Z,-0.70
2022-12-15T03:42:10.568Z,-0.70
2022-12-15T03:44:37.151Z,-0.70
2022-12-15T03:47:04.092Z,-0.70
2022-12-15T03:49:30.789Z,-0.70
2022-12-15T03:51:57.374Z,-0.60
2022-12-15T03:54:23.955Z,-0.70
2022-12-15T03:56:50.533Z,-0.70
2022-12-15T03:59:17.143Z,-0.70
2022-12-15T04:01:47.420Z,-0.80
2022-12-15T04:04:14.069Z,-0.80
2022-12-15T04:06:40.666Z,-0.80
2022-12-15T04:09:07.235Z,-0.70
2022-12-15T04:11:33.817Z,-0.60
2022-12-15T04:14:00.377Z,-0.60
2022-12-15T04:16:26.999Z,-0.70
2022-12-15T04:18:53.582Z,-0.70
2022-12-15T04:21:20.159Z,-0.70
2022-12-15T04:23:46.726Z,-0.80
2022-12-15T04:26:13.490Z,-0.80
2022-12-15T04:28:40.073Z,-0.80
2022-12-15T04:31:11.032Z,-0.80
2022-12-15T04:33:41.181Z,-0.90
2022-12-15T04:36:10.961Z,-0.90
2022-12-15T04:38:37.572Z,-0.90
2022-12-15T04:41:04.327Z,-0.90
2022-12-15T04:43:31.389Z,-0.90
2022-12-15T04:45:58.168Z,-0.90
2022-12-15T04:48:24.792Z,-0.90
2022-12-15T04:50:51.410Z,-0.90
2022-12-15T04:53:18.938Z,-0.80
2022-12-15T04:55:45.507Z,-0.80
2022-12-15T04:58:12.103Z,-0.80
2022-12-15T05:00:38.687Z,-0.80
2022-12-15T05:03:12.364Z,-0.80
2022-12-15T05:05:41.683Z,-0.90
2022-12-15T05:08:08.237Z,-0.80
2022-12-15T05:10:34.826Z,-0.80
2022-12-15T05:13:08.098Z,-0.90
2022-12-15T05:15:35.277Z,-0.90
2022-12-15T05:18:01.886Z,-1.00
2022-12-15T05:20:28.475Z,-1.00
2022-12-15T05:22:56.192Z,-0.90
2022-12-15T05:25:22.778Z,-0.90
2022-12-15T05:27:49.358Z,-0.80
2022-12-15T05:30:16.103Z,-0.90
2022-12-15T05:32:42.679Z,-0.90
2022-12-15T05:35:09.262Z,-0.80
2022-12-15T05:37:35.821Z,-0.80
2022-12-15T05:40:03.433Z,-0.90
2022-12-15T05:42:29.985Z,-0.90
2022-12-15T05:44:56.602Z,-0.90
2022-12-15T05:47:23.180Z,-0.90
2022-12-15T05:49:49.783Z,-1.00
2022-12-15T05:52:17.044Z,-1.00
2022-12-15T05:54:43.613Z,-1.00
2022-12-15T05:57:10.429Z,-1.00
2022-12-15T05:59:36.997Z,-0.90
2022-12-15T06:02:03.639Z,-0.90
2022-12-15T06:04:30.492Z,-0.90
2022-12-15T06:06:57.117Z,-0.90
2022-12-15T06:09:23.685Z,-1.00
2022-12-15T06:11:50.244Z,-1.00
2022-12-15T06:14:16.813Z,-1.00
2022-12-15T06:16:50.652Z,-1.10
2022-12-15T06:19:18.339Z,-1.00
2022-12-15T06:21:45.271Z,-1.10
2022-12-15T06:24:11.833Z,-1.00
2022-12-15T06:26:40.028Z,-1.00
2022-12-15T06:29:08.793Z,-1.00
2022-12-15T06:31:36.631Z,-1.10
2022-12-15T06:34:08.722Z,-1.10
2022-12-15T06:36:35.945Z,-1.10
2022-12-15T06:39:04.786Z,-1.10
2022-12-15T06:41:32.313Z,-1.10
2022-12-15T06:44:00.168Z,-1.10
2022-12-15T06:46:28.293Z,-1.10
2022-12-15T06:48:55.551Z,-1.10
2022-12-15T06:51:22.285Z,-1.10
2022-12-15T06:53:49.057Z,-1.10
2022-12-15T06:56:25.830Z,-1.10
2022-12-15T06:58:55.767Z,-1.20
2022-12-15T07:01:23.628Z,-1.20
2022-12-15T07:03:51.461Z,-1.10
2022-12-15T07:06:18.449Z,-1.10
2022-12-15T07:08:49.602Z,-1.10
2022-12-15T07:11:16.299Z,-1.10
2022-12-15T07:13:42.887Z,-1.10
2022-12-15T07:16:11.150Z,-1.10
2022-12-15T07:18:38.047Z,-1.20
2022-12-15T07:21:06.825Z,-1.20
2022-12-15T07:23:53.623Z,-1.20
2022-12-15T07:26:20.936Z,-1.20
2022-12-15T07:28:47.534Z,-1.20
2022-12-15T07:31:14.162Z,-1.20
2022-12-15T07:33:40.800Z,-1.30
2022-12-15T07:36:07.647Z,-1.20
2022-12-15T07:38:35.236Z,-1.20
2022-12-15T07:41:04.270Z,-1.20
2022-12-15T07:43:31.463Z,-1.20
2022-12-15T07:45:59.029Z,-1.10
2022-12-15T07:48:26.020Z,-1.10
2022-12-15T07:50:52.605Z,-1.00
2022-12-15T07:53:19.182Z,-1.10
2022-12-15T07:56:06.905Z,-1.10
2022-12-15T07:58:34.351Z,-1.10
2022-12-15T08:01:02.984Z,-1.10
2022-12-15T08:03:31.299Z,-1.10
2022-12-15T08:06:03.874Z,-1.00
2022-12-15T08:08:31.590Z,-1.00
2022-12-15T08:10:58.706Z,-0.90
2022-12-15T08:14:00.771Z,-0.90
2022-12-15T08:16:12.336Z,-0.90
2022-12-15T08:18:39.324Z,-0.80
2022-12-15T08:21:08.056Z,-0.90
2022-12-15T08:23:35.779Z,-0.90
2022-12-15T08:26:08.138Z,-0.80
2022-12-15T08:28:35.647Z,-0.80
2022-12-15T08:31:04.182Z,-0.80
2022-12-15T08:33:31.513Z,-0.80
2022-12-15T08:36:00.424Z,-0.80
2022-12-15T08:38:27.020Z,-0.80
2022-12-15T08:40:53.678Z,-0.70
2022-12-15T08:43:20.315Z,-0.80
2022-12-15T08:45:46.996Z,-0.80
2022-12-15T08:48:13.660Z,-0.80
2022-12-15T08:50:44.722Z,-0.80
2022-12-15T08:53:30.780Z,-0.70
2022-12-15T08:56:06.886Z,-0.60
2022-12-15T08:58:33.832Z,-0.50
2022-12-15T09:01:23.441Z,-0.50
2022-12-15T09:03:52.136Z,-0.50
2022-12-15T09:06:23.318Z,-0.50
2022-12-15T09:08:50.282Z,-0.60
2022-12-15T09:11:17.670Z,-0.60
2022-12-15T09:13:44.315Z,-0.50
2022-12-15T09:16:14.197Z,-0.50
2022-12-15T09:18:46.359Z,-0.50
2022-12-15T09:21:13.725Z,-0.40
2022-12-15T09:23:41.001Z,-0.30
2022-12-15T09:26:10.945Z,-0.30
2022-12-15T09:28:38.173Z,-0.20
2022-12-15T09:31:10.406Z,-0.20
2022-12-15T09:33:37.536Z,-0.10
2022-12-15T09:36:05.043Z,-0.20
2022-12-15T09:38:34.644Z,-0.10
2022-12-15T09:41:31.687Z,-0.10
2022-12-15T09:44:10.836Z,-0.20
2022-12-15T09:46:49.888Z,-0.30
2022-12-15T09:49:31.091Z,-0.20
2022-12-15T09:52:10.419Z,0.00
2022-12-15T09:54:37.979Z,0.00
2022-12-15T09:57:32.372Z,-0.10
2022-12-15T10:00:13.548Z,0.10
2022-12-15T10:02:49.855Z,-0.10
2022-12-15T10:08:59.870Z,-0.10
2022-12-15T10:11:42.201Z,0.00
2022-12-15T10:14:27.453Z,-0.10
2022-12-15T10:17:29.453Z,-0.10
2022-12-15T10:20:28.248Z,-0.10
2022-12-15T10:23:01.866Z,-0.10
2022-12-15T10:25:30.970Z,-0.10
2022-12-15T10:28:09.660Z,0.10
2022-12-15T10:30:44.731Z,-0.10
2022-12-15T10:33:22.561Z,-0.10
2022-12-15T10:35:52.213Z,-0.20
2022-12-15T10:38:37.936Z,-0.20
2022-12-15T10:41:18.939Z,-0.20
2022-12-15T10:43:47.734Z,0.00
2022-12-15T10:46:25.639Z,0.20
2022-12-15T10:49:00.557Z,0.10
2022-12-15T10:51:42.413Z,-0.10
2022-12-15T10:54:08.951Z,-0.10
2022-12-15T10:56:45.682Z,0.00
2022-12-15T10:59:37.841Z,0.00
2022-12-15T11:02:28.472Z,0.00
2022-12-15T11:05:11.447Z,0.00
2022-12-15T11:07:40.955Z,0.00
2022-12-15T11:10:31.841Z,0.10
2022-12-15T11:13:16.277Z,-0.10
2022-12-15T11:15:45.864Z,-0.10
2022-12-15T11:18:32.423Z,0.00
2022-12-15T11:21:04.354Z,0.00
2022-12-15T11:23:51.182Z,0.00
2022-12-15T11:26:45.785Z,-0.10
2022-12-15T11:29:36.954Z,-0.10
2022-12-15T11:32:07.308Z,-0.20
2022-12-15T11:34:38.239Z,-0.10
2022-12-15T11:37:37.079Z,-0.10
2022-12-15T11:40:19.065Z,-0.20
2022-12-15T11:43:16.101Z,-0.20
2022-12-15T11:45:51.614Z,-0.30
2022-12-15T11:48:22.138Z,-0.20
2022-12-15T11:51:19.929Z,-0.20
2022-12-15T11:53:55.420Z,-0.20
2022-12-15T11:56:28.443Z,-0.20
2022-12-15T11:59:06.989Z,-0.20
2022-12-15T12:01:55.525Z,-0.20
2022-12-15T12:04:29.942Z,-0.20
2022-12-15T12:07:14.506Z,-0.30
2022-12-15T12:09:53.304Z,-0.20
2022-12-15T12:12:29.360Z,-0.20
2022-12-15T12:15:25.948Z,-0.30
2022-12-15T12:17:57.924Z,-0.20
2022-12-15T12:20:29.641Z,-0.30
2022-12-15T12:23:09.763Z,-0.40
2022-12-15T12:26:05.150Z,-0.40
2022-12-15T12:28:59.551Z,-0.40
2022-12-15T12:31:42.989Z,-0.40
2022-12-15T12:34:34.775Z,-0.30
2022-12-15T12:37:28.353Z,-0.20
2022-12-15T12:40:01.743Z,-0.20
2022-12-15T12:42:42.197Z,-0.20
2022-12-15T12:45:12.725Z,-0.20
2022-12-15T12:47:44.029Z,-0.20
2022-12-15T12:50:26.912Z,-0.30
2022-12-15T12:53:00.051Z,-0.30
2022-12-15T12:55:44.778Z,-0.30
2022-12-15T12:58:49.540Z,-0.20
2022-12-15T13:01:32.834Z,-0.20
2022-12-15T13:04:08.639Z,-0.20
2022-12-15T13:06:35.189Z,-0.20
2022-12-15T13:09:16.799Z,-0.30
2022-12-15T13:11:49.633Z,-0.20
2022-12-15T13:14:26.449Z,0.00
2022-12-15T13:17:29.289Z,-0.10
2022-12-15T13:22:45.490Z,-0.10
2022-12-15T13:25:38.840Z,-0.10
2022-12-15T13:28:22.640Z,-0.10
2022-12-15T13:31:17.603Z,-0.10
2022-12-15T13:33:50.358Z,-0.10
2022-12-15T13:36:41.863Z,-0.20
2022-12-15T13:39:11.417Z,-0.10
2022-12-15T13:42:07.559Z,-0.20
2022-12-15T13:44:48.820Z,-0.10
2022-12-15T13:47:24.323Z,-0.10
2022-12-15T13:50:12.151Z,-0.20
2022-12-15T13:53:17.137Z,-0.10
2022-12-15T13:55:38.334Z,0.00
2022-12-15T13:58:16.779Z,-0.10
2022-12-15T14:00:55.607Z,0.00
2022-12-15T14:03:24.061Z,-0.10
2022-12-15T14:05:54.467Z,-0.10
2022-12-15T14:08:23.257Z,-0.30
2022-12-15T14:10:57.002Z,-0.20
2022-12-15T14:13:25.269Z,-0.30
2022-12-15T14:15:58.609Z,-0.30
2022-12-15T14:18:34.611Z,-0.30
2022-12-15T14:21:05.429Z,-0.30
2022-12-15T14:24:10.964Z,-0.30
2022-12-15T14:26:30.538Z,-0.20
2022-12-15T14:29:05.712Z,-0.30
2022-12-15T14:31:32.903Z,-0.30
2022-12-15T14:34:18.474Z,-0.30
2022-12-15T14:36:45.800Z,-0.30
2022-12-15T14:39:24.296Z,-0.30
2022-12-15T14:41:52.802Z,-0.30
2022-12-15T14:47:35.490Z,-0.40
2022-12-15T14:50:03.932Z,-0.40
2022-12-15T14:52:37.452Z,-0.30
2022-12-15T14:55:35.191Z,-0.30
2022-12-15T14:58:03.209Z,-0.30
2022-12-15T15:00:36.217Z,-0.30
2022-12-15T15:03:10.315Z,-0.20
2022-12-15T15:03:15.775Z,0.00
2022-12-15T15:03:18.246Z,-0.30
2022-12-15T15:05:48.695Z,-0.30
2022-12-15T15:08:41.422Z,-0.40
2022-12-15T15:11:36.032Z,-0.30
2022-12-15T15:14:14.784Z,-0.30
2022-12-15T15:16:42.111Z,-0.30
2022-12-15T15:19:20.271Z,-0.30
2022-12-15T15:21:47.236Z,-0.30
2022-12-15T15:24:13.753Z,-0.40
2022-12-15T15:26:40.601Z,-0.30
2022-12-15T15:29:39.612Z,-0.40
2022-12-15T15:32:14.635Z,-0.40
2022-12-15T15:34:41.347Z,-0.30
2022-12-15T15:37:37.431Z,-0.30
2022-12-15T15:40:06.464Z,-0.30
2022-12-15T15:42:33.067Z,-0.40
2022-12-15T15:44:59.713Z,-0.30
2022-12-15T15:47:27.087Z,-0.40
2022-12-15T15:49:57.895Z,-0.50
2022-12-15T15:52:24.747Z,-0.40
2022-12-15T15:54:52.843Z,-0.50
2022-12-15T15:57:19.463Z,-0.40
2022-12-15T15:59:46.237Z,-0.50
2022-12-15T16:02:14.247Z,-0.50
2022-12-15T16:04:42.436Z,-0.50
2022-12-15T16:07:27.254Z,-0.50
2022-12-15T16:09:54.157Z,-0.50
2022-12-15T16:12:41.040Z,-0.40
2022-12-15T16:15:33.969Z,-0.50
2022-12-15T16:18:00.599Z,-0.50
2022-12-15T16:20:29.398Z,-0.60
2022-12-15T16:23:16.842Z,-0.60
2022-12-15T16:25:51.043Z,-0.50
2022-12-15T16:28:22.408Z,-0.60
2022-12-15T16:30:49.943Z,-0.60
2022-12-15T16:33:16.597Z,-0.60
2022-12-15T16:35:44.240Z,-0.60
2022-12-15T16:38:24.245Z,-0.50
2022-12-15T16:40:51.616Z,-0.60
2022-12-15T16:43:21.109Z,-0.70
2022-12-15T16:45:52.261Z,-0.70
2022-12-15T16:48:19.674Z,-0.60
2022-12-15T16:50:55.561Z,-0.60
2022-12-15T16:53:27.092Z,-0.50
2022-12-15T16:55:58.582Z,-0.50
2022-12-15T16:58:27.287Z,-0.40
2022-12-15T17:00:54.104Z,-0.50
2022-12-15T17:03:22.036Z,-0.50
2022-12-15T17:05:51.074Z,-0.50
2022-12-15T17:08:21.372Z,-0.60
2022-12-15T17:10:49.144Z,-0.50
2022-12-15T17:13:26.593Z,-0.60
2022-12-15T17:15:56.752Z,-0.50
2022-12-15T17:18:23.365Z,-0.50
2022-12-15T17:20:50.081Z,-0.60
2022-12-15T17:23:19.841Z,-0.50
2022-12-15T17:28:36.077Z,-0.50
2022-12-15T17:31:03.002Z,-0.50
2022-12-15T17:33:33.494Z,-0.60
2022-12-15T17:36:03.567Z,-0.60
2022-12-15T17:38:30.581Z,-0.60
2022-12-15T17:40:57.177Z,-0.60
2022-12-15T17:43:30.603Z,-0.70
2022-12-15T17:46:01.894Z,-0.60
2022-12-15T17:48:28.589Z,-0.60
2022-12-15T17:50:55.165Z,-0.50
2022-12-15T17:53:23.361Z,-0.50
2022-12-15T17:55:51.169Z,-0.60
2022-12-15T17:58:26.046Z,-0.50
2022-12-15T18:00:55.122Z,-0.50
2022-12-15T18:03:22.841Z,-0.50
2022-12-15T18:05:53.290Z,-0.60
2022-12-15T18:08:22.443Z,-0.60
2022-12-15T18:10:51.097Z,-0.70
2022-12-15T18:13:19.677Z,-0.60
2022-12-15T18:15:47.005Z,-0.60
2022-12-15T18:18:15.304Z,-0.60
2022-12-15T18:20:42.141Z,-0.60
2022-12-15T18:23:17.905Z,-0.60
2022-12-15T18:25:44.486Z,-0.70
2022-12-15T18:28:24.597Z,-0.60
2022-12-15T18:30:53.982Z,-0.60
2022-12-15T18:33:21.927Z,-0.60
2022-12-15T18:35:50.682Z,-0.60
2022-12-15T18:38:22.335Z,-0.60
2022-12-15T18:40:54.782Z,-0.60
2022-12-15T18:43:23.674Z,-0.60
2022-12-15T18:45:51.677Z,-0.60
2022-12-15T18:48:26.370Z,-0.50
2022-12-15T18:50:54.833Z,-0.50
2022-12-15T18:53:35.137Z,-0.50
2022-12-15T18:56:06.342Z,-0.50
2022-12-15T18:58:37.498Z,-0.50
2022-12-15T19:01:05.727Z,-0.50
2022-12-15T19:03:33.067Z,-0.50
2022-12-15T19:06:06.246Z,-0.50
2022-12-15T19:08:32.894Z,-0.60
2022-12-15T19:11:01.820Z,-0.60
2022-12-15T19:13:31.724Z,-0.50
2022-12-15T19:15:59.873Z,-0.60
2022-12-15T19:18:26.597Z,-0.60
2022-12-15T19:20:53.182Z,-0.50
2022-12-15T19:23:19.805Z,-0.50
2022-12-15T19:25:47.301Z,-0.50
2022-12-15T19:28:17.213Z,-0.50
2022-12-15T19:30:44.062Z,-0.50
2022-12-15T19:33:13.258Z,-0.50
2022-12-15T19:35:42.653Z,-0.40
2022-12-15T19:38:18.751Z,-0.40
2022-12-15T19:40:45.487Z,-0.40
2022-12-15T19:43:15.915Z,-0.50
2022-12-15T19:45:43.173Z,-0.20
2022-12-15T19:48:11.084Z,-0.30
2022-12-15T19:50:38.949Z,-0.30
2022-12-15T19:53:12.706Z,-0.30
2022-12-15T19:55:39.693Z,-0.30
2022-12-15T19:58:23.657Z,-0.30
2022-12-15T20:00:53.980Z,-0.40
2022-12-15T20:03:20.781Z,-0.40
2022-12-15T20:05:49.856Z,-0.40
2022-12-15T20:08:22.673Z,-0.40
2022-12-15T20:10:49.691Z,-0.40
2022-12-15T20:13:16.860Z,-0.40
2022-12-15T20:15:43.822Z,-0.30
2022-12-15T20:18:10.503Z,-0.30
2022-12-15T20:20:37.527Z,-0.30
2022-12-15T20:23:17.300Z,-0.30
2022-12-15T20:25:44.305Z,-0.30
2022-12-15T20:28:25.726Z,-0.30
2022-12-15T20:30:53.363Z,-0.20
2022-12-15T20:33:20.152Z,-0.30
2022-12-15T20:35:49.289Z,-0.30
2022-12-15T20:38:20.580Z,-0.10
2022-12-15T20:40:47.822Z,-0.10
2022-12-15T20:43:16.715Z,-0.10
2022-12-15T20:45:44.810Z,-0.10
2022-12-15T20:48:13.319Z,-0.10
2022-12-15T20:50:49.621Z,-0.10
2022-12-15T20:53:22.628Z,-0.10
2022-12-15T20:55:50.793Z,-0.10
2022-12-15T20:58:18.414Z,-0.10
2022-12-15T21:00:46.501Z,0.00
2022-12-15T21:03:26.727Z,0.00
2022-12-15T21:05:57.157Z,0.00
2022-12-15T21:08:26.721Z,0.00
2022-12-15T21:10:55.991Z,0.00
2022-12-15T21:13:27.856Z,0.20
2022-12-15T21:15:54.617Z,0.10
2022-12-15T21:21:18.537Z,0.00
2022-12-15T21:23:45.411Z,0.10
2022-12-15T21:26:12.401Z,0.10
2022-12-15T21:28:38.986Z,0.00
2022-12-15T21:31:05.714Z,0.10
2022-12-15T21:33:32.337Z,0.10
2022-12-15T21:35:59.542Z,0.10
2022-12-15T21:38:35.710Z,0.20
2022-12-15T21:41:05.590Z,0.20
2022-12-15T21:43:35.005Z,0.30
2022-12-15T21:46:10.257Z,0.30
2022-12-15T21:48:36.884Z,0.40
2022-12-15T21:51:03.565Z,0.40
2022-12-15T21:53:30.295Z,0.30
2022-12-15T21:55:56.862Z,0.40
2022-12-15T21:58:23.641Z,0.40
2022-12-15T22:00:50.661Z,0.40
2022-12-15T22:03:18.196Z,0.40
2022-12-15T22:05:44.787Z,0.40
2022-12-15T22:08:19.674Z,0.40
2022-12-15T22:10:47.200Z,0.40
2022-12-15T22:13:18.362Z,0.40
2022-12-15T22:15:45.583Z,0.40
2022-12-15T22:18:14.485Z,0.50
2022-12-15T22:20:41.126Z,0.40
2022-12-15T22:23:07.689Z,0.50
2022-12-15T22:25:34.274Z,0.50
2022-12-15T22:28:00.875Z,0.50
2022-12-15T22:30:27.547Z,0.50
2022-12-15T22:32:54.137Z,0.50
2022-12-15T22:35:23.613Z,0.50
2022-12-15T22:37:50.898Z,0.50
2022-12-15T22:40:17.474Z,0.60
2022-12-15T22:42:48.702Z,0.60
2022-12-15T22:45:20.686Z,0.60
2022-12-15T22:47:49.067Z,0.60
2022-12-15T22:50:19.878Z,0.60
2022-12-15T22:52:48.167Z,0.70
2022-12-15T22:55:16.441Z,0.70
2022-12-15T22:58:02.370Z,0.70
2022-12-15T23:00:29.133Z,0.70
2022-12-15T23:05:29.072Z,0.70
2022-12-15T23:07:55.657Z,0.70
2022-12-15T23:10:22.272Z,0.70
2022-12-15T23:12:48.858Z,0.70
2022-12-15T23:15:19.867Z,0.70
2022-12-15T23:17:48.060Z,0.70
2022-12-15T23:20:15.021Z,0.70
2022-12-15T23:22:41.661Z,0.70
2022-12-15T23:25:08.810Z,0.70
2022-12-15T23:27:35.412Z,0.70
2022-12-15T23:30:02.031Z,0.70
2022-12-15T23:32:28.610Z,0.70
2022-12-15T23:34:55.187Z,0.80
2022-12-15T23:37:21.749Z,0.80
2022-12-15T23:39:48.321Z,0.80
2022-12-15T23:42:14.893Z,0.80
2022-12-15T23:44:41.525Z,0.80
2022-12-15T23:47:08.138Z,0.80
2022-12-15T23:49:34.927Z,0.80
2022-12-15T23:52:01.553Z,0.80
2022-12-15T23:54:28.139Z,0.80
2022-12-15T23:56:54.832Z,0.80
2022-12-15T23:59:21.512Z,0.80
